createdAt,value
2023-04-22T00:01:25.271Z,9.70
2023-04-22T00:03:52.425Z,9.60
2023-04-22T00:06:21.648Z,9.50
2023-04-22T00:08:49.775Z,9.50
2023-04-22T00:11:16.857Z,9.50
2023-04-22T00:13:44.084Z,9.40
2023-04-22T00:16:11.178Z,9.50
2023-04-22T00:18:38.282Z,9.40
2023-04-22T00:21:06.373Z,9.40
2023-04-22T00:23:33.655Z,9.40
2023-04-22T00:26:01.778Z,9.40
2023-04-22T00:28:28.767Z,9.30
2023-04-22T00:30:55.814Z,9.30
2023-04-22T00:33:22.829Z,9.30
2023-04-22T00:35:56.072Z,9.20
2023-04-22T00:38:23.368Z,9.50
2023-04-22T00:40:50.314Z,8.50
2023-04-22T00:43:18.121Z,9.30
2023-04-22T00:45:46.091Z,9.10
2023-04-22T00:48:15.336Z,9.10
2023-04-22T00:50:42.353Z,9.10
2023-04-22T00:53:09.285Z,9.10
2023-04-22T00:55:37.452Z,9.00
2023-04-22T00:58:05.331Z,9.00
2023-04-22T01:00:33.077Z,9.00
2023-04-22T01:03:01.504Z,9.00
2023-04-22T01:05:31.830Z,8.80
2023-04-22T01:07:59.373Z,8.90
2023-04-22T01:10:26.271Z,8.80
2023-04-22T01:12:53.464Z,8.70
2023-04-22T01:15:20.590Z,8.70
2023-04-22T01:17:48.289Z,8.60
2023-04-22T01:20:19.714Z,8.60
2023-04-22T01:22:50.802Z,8.60
2023-04-22T01:25:19.037Z,8.60
2023-04-22T01:27:46.162Z,8.50
2023-04-22T01:30:13.322Z,8.50
2023-04-22T01:32:41.320Z,8.40
2023-04-22T01:35:09.461Z,8.40
2023-04-22T01:37:36.875Z,8.40
2023-04-22T01:40:04.962Z,8.30
2023-04-22T01:42:32.550Z,8.30
2023-04-22T01:45:01.633Z,8.20
2023-04-22T01:47:28.723Z,8.20
2023-04-22T01:49:55.632Z,8.10
2023-04-22T01:52:23.720Z,8.10
2023-04-22T01:54:53.617Z,8.10
2023-04-22T01:57:21.575Z,8.00
2023-04-22T01:59:48.296Z,8.00
2023-04-22T02:02:15.257Z,8.00
2023-04-22T02:04:42.391Z,7.90
2023-04-22T02:07:09.311Z,7.90
2023-04-22T02:09:37.858Z,7.90
2023-04-22T02:12:05.228Z,7.90
2023-04-22T02:14:32.130Z,7.80
2023-04-22T02:17:09.137Z,8.20
2023-04-22T02:19:36.250Z,8.00
2023-04-22T02:22:04.392Z,7.60
2023-04-22T02:24:32.461Z,7.60
2023-04-22T02:26:59.326Z,7.60
2023-04-22T02:29:27.422Z,7.40
2023-04-22T02:31:54.492Z,7.60
2023-04-22T02:34:21.743Z,7.50
2023-04-22T02:36:48.640Z,7.60
2023-04-22T02:39:15.711Z,7.50
2023-04-22T02:41:42.786Z,6.90
2023-04-22T02:44:10.723Z,7.40
2023-04-22T02:46:37.701Z,7.00
2023-04-22T02:49:08.646Z,7.30
2023-04-22T02:51:37.793Z,8.10
2023-04-22T02:54:06.724Z,7.50
2023-04-22T02:56:33.632Z,7.40
2023-04-22T02:59:00.680Z,7.30
2023-04-22T03:01:27.607Z,8.20
2023-04-22T03:03:56.470Z,7.80
2023-04-22T03:06:24.613Z,7.70
2023-04-22T03:08:51.602Z,7.30
2023-04-22T03:11:20.950Z,8.20
2023-04-22T03:13:47.958Z,7.90
2023-04-22T03:16:14.820Z,7.90
2023-04-22T03:18:41.809Z,7.30
2023-04-22T03:21:08.708Z,7.30
2023-04-22T03:23:35.685Z,7.90
2023-04-22T03:26:03.818Z,7.30
2023-04-22T03:28:30.662Z,7.30
2023-04-22T03:30:58.638Z,7.30
2023-04-22T03:33:26.607Z,7.30
2023-04-22T03:35:56.408Z,7.40
2023-04-22T03:38:23.263Z,7.30
2023-04-22T03:40:51.673Z,7.20
2023-04-22T03:43:18.887Z,7.20
2023-04-22T03:45:46.125Z,7.20
2023-04-22T03:48:16.300Z,7.20
2023-04-22T03:50:43.363Z,7.20
2023-04-22T03:53:10.287Z,7.20
2023-04-22T03:55:38.371Z,8.00
2023-04-22T03:58:06.490Z,7.50
2023-04-22T04:00:44.689Z,8.10
2023-04-22T04:03:37.796Z,7.00
2023-04-22T04:06:05.385Z,7.30
2023-04-22T04:08:39.735Z,7.40
2023-04-22T04:11:11.653Z,7.70
2023-04-22T04:13:41.857Z,8.00
2023-04-22T04:16:08.872Z,7.40
2023-04-22T04:18:39.141Z,8.00
2023-04-22T04:21:39.640Z,8.10
2023-04-22T04:24:19.859Z,7.40
2023-04-22T04:26:49.165Z,7.40
2023-04-22T04:29:20.834Z,7.40
2023-04-22T04:32:22.441Z,7.40
2023-04-22T04:35:18.672Z,7.50
2023-04-22T04:37:53.923Z,7.50
2023-04-22T04:40:25.204Z,7.50
2023-04-22T04:42:53.291Z,8.00
2023-04-22T04:45:25.330Z,7.50
2023-04-22T04:48:37.347Z,7.60
2023-04-22T04:51:08.079Z,7.80
2023-04-22T04:54:19.047Z,7.60
2023-04-22T04:57:05.244Z,7.60
2023-04-22T04:59:33.340Z,7.70
2023-04-22T05:02:05.748Z,7.70
2023-04-22T05:08:17.256Z,7.70
2023-04-22T05:10:45.291Z,7.70
2023-04-22T05:21:04.475Z,7.80
2023-04-22T05:24:08.992Z,7.80
2023-04-22T05:26:40.818Z,7.90
2023-04-22T05:33:17.447Z,8.00
2023-04-22T05:35:56.744Z,8.00
2023-04-22T05:39:04.082Z,8.10
2023-04-22T05:41:57.483Z,8.20
2023-04-22T05:44:43.704Z,8.30
2023-04-22T05:47:16.794Z,8.30
2023-04-22T05:49:55.168Z,8.40
2023-04-22T05:52:29.052Z,8.40
2023-04-22T05:55:02.473Z,8.60
2023-04-22T05:57:56.376Z,8.50
2023-04-22T06:00:45.335Z,8.60
2023-04-22T06:03:12.510Z,8.30
2023-04-22T06:05:46.939Z,9.20
2023-04-22T06:08:13.905Z,8.70
2023-04-22T06:10:45.233Z,10.30
2023-04-22T06:13:13.145Z,9.00
2023-04-22T06:15:40.218Z,10.10
2023-04-22T06:18:09.726Z,9.50
2023-04-22T06:20:39.335Z,9.10
2023-04-22T06:23:07.424Z,9.10
2023-04-22T06:25:34.512Z,9.20
2023-04-22T06:28:02.510Z,9.40
2023-04-22T06:30:29.482Z,9.40
2023-04-22T06:32:56.570Z,9.40
2023-04-22T06:35:24.748Z,9.60
2023-04-22T06:37:52.807Z,9.60
2023-04-22T06:40:22.911Z,9.70
2023-04-22T06:42:49.779Z,9.70
2023-04-22T06:45:20.772Z,10.20
2023-04-22T06:47:48.080Z,10.20
2023-04-22T06:50:15.126Z,10.20
2023-04-22T06:52:43.092Z,10.40
2023-04-22T06:55:10.557Z,10.60
2023-04-22T06:57:37.865Z,10.80
2023-04-22T07:00:11.125Z,10.90
2023-04-22T07:02:41.277Z,11.10
2023-04-22T07:05:08.412Z,11.20
2023-04-22T07:07:36.595Z,11.50
2023-04-22T07:10:12.283Z,11.60
2023-04-22T07:12:41.792Z,12.00
2023-04-22T07:15:08.960Z,12.90
2023-04-22T07:17:36.022Z,14.00
2023-04-22T07:20:06.723Z,15.00
2023-04-22T07:22:33.607Z,16.00
2023-04-22T07:25:00.695Z,17.00
2023-04-22T07:27:27.724Z,17.90
2023-04-22T07:30:26.209Z,18.70
2023-04-22T07:32:52.559Z,18.90
2023-04-22T07:35:19.426Z,19.40
2023-04-22T07:37:46.495Z,19.60
2023-04-22T07:40:15.788Z,19.50
2023-04-22T07:42:42.968Z,19.50
2023-04-22T07:45:12.362Z,19.20
2023-04-22T07:47:50.113Z,19.00
2023-04-22T07:50:17.124Z,18.70
2023-04-22T07:52:44.006Z,19.00
2023-04-22T07:55:12.022Z,18.60
2023-04-22T07:57:40.047Z,18.60
2023-04-22T08:00:09.012Z,19.10
2023-04-22T08:02:37.264Z,19.20
2023-04-22T08:05:04.650Z,19.40
2023-04-22T08:07:33.675Z,20.10
2023-04-22T08:10:01.068Z,20.70
2023-04-22T08:12:30.002Z,20.70
2023-04-22T08:14:58.710Z,20.90
2023-04-22T08:17:28.221Z,21.00
2023-04-22T08:19:56.434Z,21.00
2023-04-22T08:22:24.366Z,21.40
2023-04-22T08:24:53.549Z,21.50
2023-04-22T08:27:22.669Z,21.70
2023-04-22T08:29:49.778Z,21.90
2023-04-22T08:32:20.216Z,22.00
2023-04-22T08:34:47.398Z,22.20
2023-04-22T08:37:18.773Z,22.30
2023-04-22T08:39:46.893Z,22.50
2023-04-22T08:42:16.491Z,22.80
2023-04-22T08:44:45.057Z,22.80
2023-04-22T08:47:15.214Z,22.80
2023-04-22T08:49:44.199Z,22.70
2023-04-22T08:52:13.096Z,22.40
2023-04-22T08:54:40.090Z,22.20
2023-04-22T08:57:08.772Z,21.90
2023-04-22T08:59:37.326Z,21.50
2023-04-22T09:02:07.708Z,21.30
2023-04-22T09:04:34.872Z,21.10
2023-04-22T09:07:03.303Z,20.90
2023-04-22T09:09:32.074Z,20.80
2023-04-22T09:12:01.260Z,21.10
2023-04-22T09:14:28.307Z,21.20
2023-04-22T09:16:58.587Z,21.50
2023-04-22T09:19:26.005Z,21.80
2023-04-22T09:21:58.864Z,21.90
2023-04-22T09:24:27.850Z,22.10
2023-04-22T09:26:56.539Z,22.20
2023-04-22T09:29:30.458Z,22.30
2023-04-22T09:31:57.699Z,22.40
2023-04-22T09:34:24.707Z,22.30
2023-04-22T09:36:55.031Z,22.30
2023-04-22T09:39:23.813Z,22.30
2023-04-22T09:41:59.656Z,22.20
2023-04-22T09:44:32.390Z,22.00
2023-04-22T09:47:01.899Z,21.70
2023-04-22T09:49:31.322Z,21.70
2023-04-22T09:51:59.356Z,21.70
2023-04-22T09:54:29.688Z,21.70
2023-04-22T09:56:56.795Z,21.80
2023-04-22T09:59:26.409Z,21.90
2023-04-22T10:02:04.716Z,21.90
2023-04-22T10:04:33.225Z,22.10
2023-04-22T10:07:02.634Z,22.20
2023-04-22T10:09:29.528Z,22.30
2023-04-22T10:11:59.152Z,22.40
2023-04-22T10:14:27.852Z,22.40
2023-04-22T10:17:00.935Z,22.50
2023-04-22T10:19:29.072Z,22.60
2023-04-22T10:22:04.011Z,22.50
2023-04-22T10:24:36.767Z,22.50
2023-04-22T10:27:08.657Z,22.20
2023-04-22T10:29:39.040Z,22.00
2023-04-22T10:32:20.614Z,22.00
2023-04-22T10:34:52.759Z,21.80
2023-04-22T10:37:21.869Z,21.80
2023-04-22T10:40:08.419Z,21.60
2023-04-22T10:42:37.578Z,21.50
2023-04-22T10:45:05.477Z,21.50
2023-04-22T10:47:42.324Z,21.40
2023-04-22T10:50:18.801Z,21.30
2023-04-22T10:52:56.588Z,21.30
2023-04-22T10:55:27.723Z,21.30
2023-04-22T10:58:02.093Z,21.40
2023-04-22T11:00:52.213Z,21.50
2023-04-22T11:03:30.130Z,21.50
2023-04-22T11:06:28.042Z,21.40
2023-04-22T11:09:21.795Z,21.50
2023-04-22T11:11:50.847Z,21.60
2023-04-22T11:14:18.611Z,21.50
2023-04-22T11:16:48.834Z,21.50
2023-04-22T11:19:16.150Z,21.60
2023-04-22T11:21:44.231Z,21.60
2023-04-22T11:24:11.267Z,21.50
2023-04-22T11:26:47.329Z,21.50
2023-04-22T11:29:14.578Z,21.50
2023-04-22T11:31:48.251Z,21.50
2023-04-22T11:34:19.506Z,21.40
2023-04-22T11:36:48.249Z,21.30
2023-04-22T11:39:19.958Z,21.20
2023-04-22T11:41:50.477Z,21.20
2023-04-22T11:44:27.022Z,21.40
2023-04-22T11:47:01.576Z,21.60
2023-04-22T11:49:35.873Z,21.80
2023-04-22T11:52:03.071Z,21.90
2023-04-22T11:54:45.209Z,22.00
2023-04-22T11:57:19.985Z,22.10
2023-04-22T12:00:02.658Z,22.00
2023-04-22T12:03:00.731Z,22.10
2023-04-22T12:05:42.135Z,22.10
2023-04-22T12:08:14.771Z,22.10
2023-04-22T12:10:58.257Z,22.00
2023-04-22T12:13:34.899Z,21.90
2023-04-22T12:16:08.333Z,21.70
2023-04-22T12:19:02.775Z,21.50
2023-04-22T12:21:35.364Z,21.30
2023-04-22T12:24:13.783Z,21.20
2023-04-22T12:26:47.130Z,21.20
2023-04-22T12:29:18.334Z,21.10
2023-04-22T12:31:45.353Z,21.10
2023-04-22T12:34:13.268Z,21.10
2023-04-22T12:36:40.343Z,20.90
2023-04-22T12:39:47.361Z,20.90
2023-04-22T12:42:17.440Z,20.60
2023-04-22T12:44:49.536Z,20.50
2023-04-22T12:47:20.164Z,20.40
2023-04-22T12:49:48.438Z,20.20
2023-04-22T12:52:15.787Z,20.00
2023-04-22T12:54:42.852Z,20.00
2023-04-22T12:57:16.404Z,20.00
2023-04-22T12:59:45.095Z,19.80
2023-04-22T13:02:16.582Z,19.80
2023-04-22T13:05:00.731Z,19.90
2023-04-22T13:07:53.531Z,19.70
2023-04-22T13:10:39.821Z,19.50
2023-04-22T13:13:18.405Z,19.40
2023-04-22T13:21:07.661Z,19.30
2023-04-22T13:26:48.325Z,19.20
2023-04-22T13:33:03.604Z,19.30
2023-04-22T13:35:42.317Z,19.10
2023-04-22T13:38:10.668Z,19.00
2023-04-22T13:40:44.727Z,18.90
2023-04-22T13:43:26.904Z,18.90
2023-04-22T13:45:54.485Z,18.80
2023-04-22T13:48:30.505Z,18.60
2023-04-22T13:51:10.864Z,18.40
2023-04-22T13:53:45.888Z,18.20
2023-04-22T13:56:19.653Z,18.10
2023-04-22T13:58:51.940Z,18.00
2023-04-22T14:01:30.788Z,17.80
2023-04-22T14:04:03.223Z,17.60
2023-04-22T14:06:33.576Z,17.30
2023-04-22T14:09:01.600Z,17.20
2023-04-22T14:11:38.334Z,16.90
2023-04-22T14:14:06.517Z,16.80
2023-04-22T14:16:36.874Z,16.90
2023-04-22T14:22:41.646Z,16.50
2023-04-22T14:25:09.305Z,16.30
2023-04-22T14:27:54.392Z,16.10
2023-04-22T14:30:29.937Z,16.10
2023-04-22T14:33:09.786Z,16.00
2023-04-22T14:35:37.806Z,15.90
2023-04-22T14:38:10.398Z,15.80
2023-04-22T14:40:37.879Z,15.80
2023-04-22T14:43:16.282Z,15.80
2023-04-22T14:45:44.687Z,15.80
2023-04-22T14:48:23.402Z,15.90
2023-04-22T14:50:55.907Z,15.90
2023-04-22T14:53:26.041Z,16.00
2023-04-22T14:55:54.622Z,16.00
2023-04-22T14:58:37.326Z,16.00
2023-04-22T15:01:17.921Z,16.00
2023-04-22T15:04:16.573Z,16.00
2023-04-22T15:07:22.207Z,16.00
2023-04-22T15:10:11.098Z,16.10
2023-04-22T15:12:38.138Z,16.10
2023-04-22T15:15:05.897Z,16.10
2023-04-22T15:17:36.221Z,16.20
2023-04-22T15:20:16.969Z,16.20
2023-04-22T15:22:49.198Z,16.30
2023-04-22T15:25:21.659Z,16.20
2023-04-22T15:28:02.643Z,16.20
2023-04-22T15:30:32.522Z,16.10
2023-04-22T15:33:11.238Z,16.00
2023-04-22T15:35:47.768Z,16.00
2023-04-22T15:41:40.489Z,16.00
2023-04-22T15:44:57.584Z,16.10
2023-04-22T15:51:13.112Z,16.20
2023-04-22T15:53:40.328Z,16.10
2023-04-22T15:56:10.333Z,16.10
2023-04-22T15:58:44.878Z,16.10
2023-04-22T16:01:19.505Z,16.10
2023-04-22T16:03:48.534Z,16.00
2023-04-22T16:06:21.506Z,16.10
2023-04-22T16:08:49.794Z,16.00
2023-04-22T16:11:19.543Z,15.90
2023-04-22T16:13:49.262Z,16.00
2023-04-22T16:16:19.029Z,15.80
2023-04-22T16:18:46.024Z,15.70
2023-04-22T16:21:13.208Z,15.70
2023-04-22T16:23:40.351Z,15.70
2023-04-22T16:26:09.714Z,15.60
2023-04-22T16:28:38.979Z,15.60
2023-04-22T16:31:06.105Z,15.60
2023-04-22T16:33:34.253Z,15.60
2023-04-22T16:36:01.169Z,15.60
2023-04-22T16:38:28.092Z,15.50
2023-04-22T16:40:56.201Z,15.60
2023-04-22T16:51:16.732Z,15.50
2023-04-22T16:53:45.415Z,15.40
2023-04-22T17:01:04.769Z,15.20
2023-04-22T17:02:11.753Z,15.20
2023-04-22T17:04:38.981Z,15.10
2023-04-22T17:07:05.897Z,15.00
2023-04-22T17:10:19.383Z,15.00
2023-04-22T17:12:49.769Z,15.00
2023-04-22T17:15:23.384Z,14.90
2023-04-22T17:17:53.909Z,14.80
2023-04-22T17:20:25.442Z,14.80
2023-04-22T17:22:54.765Z,14.80
2023-04-22T17:28:32.179Z,14.60
2023-04-22T17:31:04.317Z,14.30
2023-04-22T17:33:32.539Z,14.10
2023-04-22T17:35:59.466Z,13.90
2023-04-22T17:38:39.501Z,13.70
2023-04-22T17:41:06.434Z,13.50
2023-04-22T17:43:33.405Z,13.40
2023-04-22T17:46:00.420Z,13.10
2023-04-22T17:48:27.276Z,13.00
2023-04-22T17:50:54.488Z,12.90
2023-04-22T17:53:22.908Z,12.80
2023-04-22T17:55:49.874Z,12.60
2023-04-22T17:58:19.192Z,12.60
2023-04-22T18:00:46.462Z,12.60
2023-04-22T18:03:13.756Z,12.50
2023-04-22T18:05:43.369Z,12.40
2023-04-22T18:08:10.991Z,12.40
2023-04-22T18:10:41.857Z,12.40
2023-04-22T18:13:11.973Z,12.30
2023-04-22T18:15:39.295Z,12.30
2023-04-22T18:18:09.003Z,12.30
2023-04-22T18:20:40.300Z,12.30
2023-04-22T18:23:07.289Z,12.30
2023-04-22T18:25:34.305Z,12.30
2023-04-22T18:28:02.554Z,12.30
2023-04-22T18:34:55.398Z,12.30
2023-04-22T18:37:26.991Z,12.40
2023-04-22T18:39:56.093Z,12.10
2023-04-22T18:42:24.421Z,12.10
2023-04-22T18:44:54.319Z,12.10
2023-04-22T18:47:21.619Z,12.10
2023-04-22T18:49:48.728Z,12.10
2023-04-22T18:52:17.381Z,12.00
2023-04-22T18:54:44.776Z,12.00
2023-04-22T18:57:11.771Z,11.90
2023-04-22T18:59:39.891Z,11.90
2023-04-22T19:02:13.362Z,11.90
2023-04-22T19:04:40.818Z,11.90
2023-04-22T19:07:08.082Z,11.90
2023-04-22T19:09:35.143Z,11.90
2023-04-22T19:12:02.414Z,11.70
2023-04-22T19:14:33.860Z,11.80
2023-04-22T19:17:09.400Z,11.70
2023-04-22T19:19:36.400Z,11.80
2023-04-22T19:22:06.236Z,11.70
2023-04-22T19:24:35.310Z,11.80
2023-04-22T19:27:02.967Z,11.70
2023-04-22T19:29:30.111Z,11.70
2023-04-22T19:31:57.474Z,11.70
2023-04-22T19:34:24.532Z,11.60
2023-04-22T19:36:54.554Z,11.70
2023-04-22T19:39:23.843Z,11.70
2023-04-22T19:41:50.911Z,11.70
2023-04-22T19:44:18.374Z,11.60
2023-04-22T19:46:45.496Z,11.60
2023-04-22T19:49:12.730Z,11.60
2023-04-22T19:51:41.144Z,11.50
2023-04-22T19:54:19.827Z,11.50
2023-04-22T19:56:53.172Z,11.40
2023-04-22T19:59:20.489Z,11.40
2023-04-22T20:01:47.738Z,11.30
2023-04-22T20:04:15.068Z,11.30
2023-04-22T20:06:45.032Z,11.30
2023-04-22T20:09:13.650Z,11.20
2023-04-22T20:11:41.483Z,11.20
2023-04-22T20:14:09.942Z,11.20
2023-04-22T20:16:40.553Z,11.10
2023-04-22T20:19:07.685Z,11.10
2023-04-22T20:21:36.435Z,11.00
2023-04-22T20:24:04.495Z,11.00
2023-04-22T20:26:32.981Z,10.90
2023-04-22T20:29:00.865Z,10.90
2023-04-22T20:31:27.915Z,10.80
2023-04-22T20:33:55.024Z,10.70
2023-04-22T20:36:24.260Z,10.60
2023-04-22T20:38:56.276Z,10.60
2023-04-22T20:41:26.730Z,10.50
2023-04-22T20:43:53.890Z,10.50
2023-04-22T20:46:23.351Z,10.40
2023-04-22T20:48:52.786Z,10.40
2023-04-22T20:51:19.835Z,10.40
2023-04-22T20:53:46.929Z,10.30
2023-04-22T20:56:14.145Z,10.20
2023-04-22T20:58:41.488Z,10.20
2023-04-22T21:01:11.351Z,10.20
2023-04-22T21:03:40.324Z,10.10
2023-04-22T21:06:08.873Z,10.10
2023-04-22T21:08:39.458Z,10.10
2023-04-22T21:11:06.841Z,10.00
2023-04-22T21:13:37.272Z,10.00
2023-04-22T21:16:09.821Z,9.90
2023-04-22T21:18:39.829Z,10.00
2023-04-22T21:21:08.795Z,9.90
2023-04-22T21:23:37.494Z,9.90
2023-04-22T21:26:06.008Z,9.90
2023-04-22T21:28:33.240Z,9.80
2023-04-22T21:31:00.480Z,9.80
2023-04-22T21:33:33.573Z,9.80
2023-04-22T21:36:00.551Z,9.70
2023-04-22T21:38:27.875Z,9.70
2023-04-22T21:40:54.883Z,9.80
2023-04-22T21:43:21.916Z,9.70
2023-04-22T21:45:48.740Z,9.60
2023-04-22T21:48:20.889Z,9.60
2023-04-22T21:50:47.856Z,9.60
2023-04-22T21:53:14.751Z,9.50
2023-04-22T21:55:41.707Z,9.50
2023-04-22T21:58:09.864Z,9.50
2023-04-22T22:00:37.887Z,9.50
2023-04-22T22:03:06.393Z,9.50
2023-04-22T22:05:33.539Z,9.40
2023-04-22T22:08:00.661Z,9.40
2023-04-22T22:10:28.052Z,9.40
2023-04-22T22:12:55.061Z,9.40
2023-04-22T22:15:22.011Z,9.40
2023-04-22T22:17:49.651Z,9.40
2023-04-22T22:20:20.401Z,9.50
2023-04-22T22:22:48.035Z,9.50
2023-04-22T22:25:19.030Z,9.40
2023-04-22T22:27:47.302Z,9.40
2023-04-22T22:30:18.291Z,9.40
2023-04-22T22:32:45.284Z,9.50
2023-04-22T22:35:12.250Z,9.40
2023-04-22T22:37:39.507Z,9.40
2023-04-22T22:40:06.949Z,9.40
2023-04-22T22:42:34.056Z,9.40
2023-04-22T22:45:01.152Z,9.30
2023-04-22T22:47:28.140Z,9.30
2023-04-22T22:49:56.489Z,9.40
2023-04-22T22:52:23.555Z,9.30
2023-04-22T22:54:50.470Z,9.30
2023-04-22T22:57:17.487Z,9.20
2023-04-22T22:59:44.357Z,9.20
2023-04-22T23:02:11.537Z,9.30
2023-04-22T23:04:39.639Z,9.20
2023-04-22T23:07:06.823Z,9.20
2023-04-22T23:09:36.344Z,9.20
2023-04-22T23:12:04.995Z,9.20
2023-04-22T23:14:33.497Z,9.20
2023-04-22T23:17:00.571Z,9.20
2023-04-22T23:19:28.522Z,9.20
2023-04-22T23:21:56.513Z,9.20
2023-04-22T23:24:23.693Z,9.20
2023-04-22T23:26:51.092Z,9.20
2023-04-22T23:29:19.559Z,9.20
2023-04-22T23:31:50.492Z,9.20
2023-04-22T23:34:21.920Z,9.20
2023-04-22T23:36:49.361Z,9.20
2023-04-22T23:39:16.695Z,9.20
2023-04-22T23:41:43.569Z,9.20
2023-04-22T23:44:11.365Z,9.20
2023-04-22T23:46:39.462Z,9.20
2023-04-22T23:49:07.237Z,9.20
2023-04-22T23:51:35.251Z,9.20
2023-04-22T23:54:02.221Z,9.20
2023-04-22T23:56:29.424Z,9.30
2023-04-22T23:58:57.225Z,9.20
